Main page
METAR-TAF:

METAR-TAF

Airports :

Larnaca International Airport

Larnaca, Cyprus

latitude: 34-53N, longitude: 033-38E, elevation: 2 m

Current weather observation

The report was made 20 minutes ago, at 01:30 UTC
Wind 9 kt from the North/Northwest
Temperature 7°C
Humidity 76%
Pressure 1021 hPa
Visibility 10 km or more
no clouds below 1500 m and no cumulonimbus

METAR: LCLK 220130Z 33009KT CAVOK 07/03 Q1021 NOSIG

Time: 03:50 (01:50 UTC)

Forecast

The report was made 2 hours and 20 minutes ago, at 23:30 UTC
Forecast valid from 22 at 00 UTC to 22 at 24 UTC
Wind 9 kt from the Northwest
Visibility 10 km or more
no clouds below 1500 m and no cumulonimbus
Becoming
from 22 at 06 UTC to 22 at 10 UTC
Wind 12 kt from the North/Northeast
Becoming
from 22 at 14 UTC to 22 at 16 UTC
Wind 8 kt from the Northwest

TAF: LCLK 212330Z 2200/2224 32009KT CAVOK BECMG 2206/2210 02012KT BECMG 2214/2216 32008KT

Weather observations and forecasts of more than 4000 airports (METAR and TAF reports).

The available stations are represented by yellow and red dots on the map.

Hover mouse over dot to see the name of the station.

Then click to see weather observations and forecasts.

To change the map : click on the green buttons with a black cross to zoom in, on the green button with a dash to zoom out, or on the green arrows for adjacent maps.


METAR-TAF: